Time;durP1;ratioP1;P1;durP2;ratioP2;P2;SDS_P1;SDS_P2;PMS_P1;PMS_P2;Temp;Humidity;BMP_temperature;BMP_pressure;BME280_temperature;BME280_humidity;BME280_pressure;Samples;Min_cycle;Max_cycle;Signal;HPM_P1;HPM_P2
2022/10/21 00:48:50;;;;;;;1999.90;999.90;;;;;;;;;;5269997;22;20249;-68
2022/10/21 00:51:37;;;;;;;1999.90;999.90;;;;;;;;;;4988777;28;20726;-68
2022/10/21 00:54:23;;;;;;;1999.90;999.90;;;;;;;;;;4991926;28;20210;-67
2022/10/21 00:57:08;;;;;;;1999.90;999.90;;;;;;;;;;4990357;28;20309;-68
2022/10/21 00:59:54;;;;;;;1999.90;999.90;;;;;;;;;;4988300;28;20218;-67
2022/10/21 01:02:40;;;;;;;1999.90;999.90;;;;;;;;;;4992882;28;20234;-68
2022/10/21 01:05:26;;;;;;;1999.90;999.90;;;;;;;;;;4992011;28;20461;-68
2022/10/21 01:08:11;;;;;;;1999.90;999.90;;;;;;;;;;4993189;28;20342;-68
2022/10/21 01:10:57;;;;;;;1999.90;999.90;;;;;;;;;;4992738;28;20603;-67
2022/10/21 01:13:49;;;;;;;1999.90;999.90;;;;;;;;;;4982915;28;20330;-68
2022/10/21 01:16:35;;;;;;;1999.90;999.90;;;;;;;;;;4987275;28;20298;-67
2022/10/21 01:19:36;;;;;;;1999.90;999.90;;;;;;;;;;4989407;28;20214;-68
2022/10/21 01:22:30;;;;;;;1999.90;999.90;;;;;;;;;;4982047;28;20211;-68
2022/10/21 01:25:25;;;;;;;1999.90;999.90;;;;;;;;;;4991155;28;20459;-67
2022/10/21 01:28:15;;;;;;;1999.90;999.90;;;;;;;;;;4995169;28;20743;-68
2022/10/21 01:31:03;;;;;;;1999.90;999.90;;;;;;;;;;4976040;28;20203;-68
2022/10/21 01:33:53;;;;;;;1999.90;999.90;;;;;;;;;;4984547;28;20301;-68
2022/10/21 01:36:40;;;;;;;1999.90;999.90;;;;;;;;;;4974187;28;20218;-68
2022/10/21 01:39:28;;;;;;;1999.90;999.90;;;;;;;;;;4990298;28;20266;-68
2022/10/21 01:42:15;;;;;;;1999.90;999.90;;;;;;;;;;4983965;28;20220;-67
2022/10/21 01:45:01;;;;;;;1999.90;999.90;;;;;;;;;;4992540;28;20217;-68
2022/10/21 01:47:50;;;;;;;1999.90;999.90;;;;;;;;;;4995620;28;20237;-68
2022/10/21 01:50:38;;;;;;;1999.90;999.90;;;;;;;;;;4986813;28;20222;-68
2022/10/21 01:53:25;;;;;;;1999.90;999.90;;;;;;;;;;4997362;28;20289;-68
2022/10/21 01:56:11;;;;;;;1999.90;999.90;;;;;;;;;;4974613;28;20258;-68
2022/10/21 01:58:57;;;;;;;1999.90;999.90;;;;;;;;;;4995124;28;20230;-68
2022/10/21 02:01:43;;;;;;;1999.90;999.90;;;;;;;;;;4997612;28;20218;-68
2022/10/21 02:04:30;;;;;;;1999.90;999.90;;;;;;;;;;4985682;28;20334;-68
2022/10/21 02:07:15;;;;;;;1999.90;999.90;;;;;;;;;;4992749;28;20269;-68
2022/10/21 02:10:01;;;;;;;1999.90;999.90;;;;;;;;;;4975419;28;20266;-68
2022/10/21 02:12:48;;;;;;;1999.90;999.90;;;;;;;;;;4989447;28;20213;-68
2022/10/21 02:15:34;;;;;;;1999.90;999.90;;;;;;;;;;4972552;28;20211;-67
2022/10/21 02:18:21;;;;;;;1999.90;999.90;;;;;;;;;;4981018;28;20309;-68
2022/10/21 02:21:10;;;;;;;1999.90;999.90;;;;;;;;;;4979831;28;20734;-68
2022/10/21 02:23:57;;;;;;;1999.90;999.90;;;;;;;;;;4992360;28;20297;-68
2022/10/21 02:26:42;;;;;;;1999.90;999.90;;;;;;;;;;4994671;28;20217;-67
2022/10/21 02:29:28;;;;;;;1999.90;999.90;;;;;;;;;;4985625;28;20332;-68
2022/10/21 02:32:22;;;;;;;1999.90;999.90;;;;;;;;;;4995705;28;20252;-68
2022/10/21 02:35:16;;;;;;;1999.90;999.90;;;;;;;;;;4973643;28;20206;-68
2022/10/21 02:38:05;;;;;;;1999.90;999.90;;;;;;;;;;4983792;28;20405;-67
2022/10/21 02:40:52;;;;;;;1999.90;999.90;;;;;;;;;;4991721;28;20217;-68
2022/10/21 02:43:39;;;;;;;1999.90;999.90;;;;;;;;;;4986640;28;20204;-68
2022/10/21 02:46:24;;;;;;;1999.90;999.90;;;;;;;;;;4987327;28;20217;-68
2022/10/21 02:49:10;;;;;;;1999.90;999.90;;;;;;;;;;4994722;28;20291;-67
2022/10/21 02:51:55;;;;;;;1999.90;999.90;;;;;;;;;;4987039;28;20206;-68
2022/10/21 02:54:41;;;;;;;1999.90;999.90;;;;;;;;;;4995621;28;20260;-68
2022/10/21 02:57:26;;;;;;;1999.90;999.90;;;;;;;;;;4999193;28;20731;-68
2022/10/21 03:00:11;;;;;;;1999.90;999.90;;;;;;;;;;4977033;28;20327;-67
2022/10/21 03:02:56;;;;;;;1999.90;999.90;;;;;;;;;;4992536;28;20632;-68
2022/10/21 03:05:41;;;;;;;1999.90;999.90;;;;;;;;;;4999037;28;20207;-68
2022/10/21 03:08:26;;;;;;;1999.90;999.90;;;;;;;;;;4988367;28;20223;-68
2022/10/21 03:11:13;;;;;;;1999.90;999.90;;;;;;;;;;5000900;28;20589;-68
2022/10/21 03:13:58;;;;;;;1999.90;999.90;;;;;;;;;;4995551;28;20399;-68
2022/10/21 03:16:43;;;;;;;1999.90;999.90;;;;;;;;;;5002427;28;20224;-67
2022/10/21 03:19:28;;;;;;;1999.90;999.90;;;;;;;;;;4988860;28;20296;-70
2022/10/21 03:22:13;;;;;;;1999.90;999.90;;;;;;;;;;4994987;28;20228;-68
2022/10/21 03:24:58;;;;;;;1999.90;999.90;;;;;;;;;;4996067;28;20204;-68
2022/10/21 03:27:44;;;;;;;1999.90;999.90;;;;;;;;;;4995150;28;20282;-68
2022/10/21 03:30:29;;;;;;;1999.90;999.90;;;;;;;;;;4996410;28;20220;-68
2022/10/21 03:33:14;;;;;;;1999.90;999.90;;;;;;;;;;4993861;28;20412;-68
2022/10/21 03:35:59;;;;;;;1999.90;999.90;;;;;;;;;;4997519;28;20215;-68
2022/10/21 03:38:44;;;;;;;1999.90;999.90;;;;;;;;;;4980248;28;20233;-68
2022/10/21 03:41:29;;;;;;;1999.90;999.90;;;;;;;;;;4997164;28;20710;-67
2022/10/21 03:44:15;;;;;;;1999.90;999.90;;;;;;;;;;4975776;28;20216;-67
2022/10/21 03:47:00;;;;;;;1999.90;999.90;;;;;;;;;;4995237;28;20255;-68
2022/10/21 03:49:45;;;;;;;1999.90;999.90;;;;;;;;;;4997208;28;20602;-67
2022/10/21 03:52:30;;;;;;;1999.90;999.90;;;;;;;;;;4987056;28;20406;-68
2022/10/21 03:55:16;;;;;;;1999.90;999.90;;;;;;;;;;4998434;28;20225;-68
2022/10/21 03:58:00;;;;;;;1999.90;999.90;;;;;;;;;;4994092;28;20590;-68
2022/10/21 04:00:50;;;;;;;1999.90;999.90;;;;;;;;;;4986606;28;20208;-68
2022/10/21 04:03:35;;;;;;;1999.90;999.90;;;;;;;;;;4988946;28;20330;-68
2022/10/21 04:06:20;;;;;;;1999.90;999.90;;;;;;;;;;4998193;28;20212;-68
2022/10/21 04:09:05;;;;;;;1999.90;999.90;;;;;;;;;;4978427;28;20604;-68
2022/10/21 04:11:50;;;;;;;1999.90;999.90;;;;;;;;;;4997986;28;20318;-68
2022/10/21 04:14:35;;;;;;;1999.90;999.90;;;;;;;;;;4981174;28;20574;-68
2022/10/21 04:17:21;;;;;;;1999.90;999.90;;;;;;;;;;4986508;28;20234;-67
2022/10/21 04:20:07;;;;;;;1999.90;999.90;;;;;;;;;;4994376;28;20348;-67
2022/10/21 04:22:52;;;;;;;1999.90;999.90;;;;;;;;;;4978421;28;20235;-67
2022/10/21 04:25:37;;;;;;;1999.90;999.90;;;;;;;;;;4992667;28;20216;-67
2022/10/21 04:28:22;;;;;;;1999.90;999.90;;;;;;;;;;4986361;28;20722;-67
2022/10/21 04:31:07;;;;;;;1999.90;999.90;;;;;;;;;;4992695;28;20586;-67
2022/10/21 04:33:53;;;;;;;1999.90;999.90;;;;;;;;;;4996548;28;20311;-67
2022/10/21 04:36:38;;;;;;;1999.90;999.90;;;;;;;;;;4999351;28;20298;-67
2022/10/21 04:39:23;;;;;;;1999.90;999.90;;;;;;;;;;4997788;28;20213;-67
2022/10/21 04:42:08;;;;;;;1999.90;999.90;;;;;;;;;;4993979;28;20211;-67
2022/10/21 04:44:53;;;;;;;1999.90;999.90;;;;;;;;;;4997943;28;20212;-67
2022/10/21 04:47:38;;;;;;;1999.90;999.90;;;;;;;;;;4977767;28;25106;-68
2022/10/21 04:50:25;;;;;;;1999.90;999.90;;;;;;;;;;4999466;28;20209;-67
2022/10/21 04:53:10;;;;;;;1999.90;999.90;;;;;;;;;;4978278;28;20218;-68
2022/10/21 04:55:55;;;;;;;1999.90;999.90;;;;;;;;;;4996503;28;20212;-68
2022/10/21 04:58:39;;;;;;;1999.90;999.90;;;;;;;;;;4997806;28;20315;-67
2022/10/21 05:01:24;;;;;;;1999.90;999.90;;;;;;;;;;4986411;28;20209;-67
2022/10/21 05:04:10;;;;;;;1999.90;999.90;;;;;;;;;;4993582;28;20263;-65
2022/10/21 05:06:56;;;;;;;1999.90;999.90;;;;;;;;;;4972512;28;20433;-68
2022/10/21 05:09:41;;;;;;;1999.90;999.90;;;;;;;;;;4973134;28;20304;-68
2022/10/21 05:12:26;;;;;;;1999.90;999.90;;;;;;;;;;4974092;28;20209;-68
2022/10/21 05:15:12;;;;;;;1999.90;999.90;;;;;;;;;;4973634;28;20226;-68
2022/10/21 05:17:57;;;;;;;1999.90;999.90;;;;;;;;;;4973871;28;20228;-68
2022/10/21 05:20:42;;;;;;;1999.90;999.90;;;;;;;;;;4973902;28;20208;-68
2022/10/21 05:23:28;;;;;;;1999.90;999.90;;;;;;;;;;4977716;28;20224;-68
2022/10/21 05:26:13;;;;;;;1999.90;999.90;;;;;;;;;;4983488;28;20215;-68
2022/10/21 05:28:58;;;;;;;1999.90;999.90;;;;;;;;;;4991111;28;20777;-67
2022/10/21 05:31:43;;;;;;;1999.90;999.90;;;;;;;;;;4988492;28;20211;-69
2022/10/21 05:34:28;;;;;;;1999.90;999.90;;;;;;;;;;4990823;28;20280;-66
2022/10/21 05:37:13;;;;;;;1999.90;999.90;;;;;;;;;;4991307;28;20227;-65
2022/10/21 05:40:00;;;;;;;1999.90;999.90;;;;;;;;;;4992840;28;20223;-68
2022/10/21 05:42:45;;;;;;;1999.90;999.90;;;;;;;;;;4991764;28;20697;-66
2022/10/21 05:45:30;;;;;;;1999.90;999.90;;;;;;;;;;4992871;28;20215;-68
2022/10/21 05:48:17;;;;;;;1999.90;999.90;;;;;;;;;;4990420;28;20293;-68
2022/10/21 05:51:02;;;;;;;1999.90;999.90;;;;;;;;;;4991284;28;20298;-67
2022/10/21 05:53:47;;;;;;;1999.90;999.90;;;;;;;;;;4989486;28;20298;-68
2022/10/21 05:56:33;;;;;;;1999.90;999.90;;;;;;;;;;4987086;28;20215;-68
2022/10/21 05:59:18;;;;;;;1999.90;999.90;;;;;;;;;;4982689;28;20422;-68
2022/10/21 06:02:03;;;;;;;1999.90;999.90;;;;;;;;;;4991938;28;20220;-68
2022/10/21 06:04:48;;;;;;;1999.90;999.90;;;;;;;;;;4988239;28;20223;-68
2022/10/21 06:07:33;;;;;;;1999.90;999.90;;;;;;;;;;4985520;28;20235;-68
2022/10/21 06:10:18;;;;;;;1999.90;999.90;;;;;;;;;;4992473;28;20207;-67
2022/10/21 06:13:04;;;;;;;1999.90;999.90;;;;;;;;;;4998601;28;20209;-67
2022/10/21 06:15:49;;;;;;;1999.90;999.90;;;;;;;;;;4992190;28;20227;-68
2022/10/21 06:18:34;;;;;;;1999.90;999.90;;;;;;;;;;4998563;28;20884;-68
2022/10/21 06:21:20;;;;;;;1999.90;999.90;;;;;;;;;;4987796;28;20339;-68
2022/10/21 06:24:05;;;;;;;1999.90;999.90;;;;;;;;;;4996027;28;20223;-67
2022/10/21 06:26:49;;;;;;;1999.90;999.90;;;;;;;;;;4996618;28;20232;-68
2022/10/21 06:29:36;;;;;;;1999.90;999.90;;;;;;;;;;4990360;28;20228;-67
2022/10/21 06:32:20;;;;;;;1999.90;999.90;;;;;;;;;;4997668;28;20219;-68
2022/10/21 06:35:06;;;;;;;1999.90;999.90;;;;;;;;;;4995932;28;20338;-68
2022/10/21 06:37:51;;;;;;;1999.90;999.90;;;;;;;;;;5000616;28;20223;-68
2022/10/21 06:40:36;;;;;;;1999.90;999.90;;;;;;;;;;4990616;28;20211;-68
2022/10/21 06:43:21;;;;;;;1999.90;999.90;;;;;;;;;;4999146;28;20282;-68
2022/10/21 06:46:08;;;;;;;1999.90;999.90;;;;;;;;;;4978068;28;20815;-67
2022/10/21 06:48:53;;;;;;;1999.90;999.90;;;;;;;;;;4992296;28;20232;-68
2022/10/21 06:51:38;;;;;;;1999.90;999.90;;;;;;;;;;4998981;28;20367;-67
2022/10/21 06:54:23;;;;;;;1999.90;999.90;;;;;;;;;;4988265;28;20204;-67
2022/10/21 06:57:07;;;;;;;1999.90;999.90;;;;;;;;;;5001754;28;20371;-68
2022/10/21 06:59:52;;;;;;;1999.90;999.90;;;;;;;;;;4995372;28;20203;-68
2022/10/21 07:02:39;;;;;;;1999.90;999.90;;;;;;;;;;4999679;28;20346;-67
2022/10/21 07:05:24;;;;;;;1999.90;999.90;;;;;;;;;;4984069;28;20221;-68
2022/10/21 07:08:09;;;;;;;1999.90;999.90;;;;;;;;;;4992334;28;20235;-68
2022/10/21 07:10:54;;;;;;;1999.90;999.90;;;;;;;;;;4984841;28;20215;-68
2022/10/21 07:13:39;;;;;;;1999.90;999.90;;;;;;;;;;4990686;28;20405;-67
2022/10/21 07:16:24;;;;;;;1999.90;999.90;;;;;;;;;;4993346;28;20206;-68
2022/10/21 07:19:11;;;;;;;1999.90;999.90;;;;;;;;;;4994157;28;20227;-68
2022/10/21 07:21:56;;;;;;;1999.90;999.90;;;;;;;;;;4995226;28;20397;-67
2022/10/21 07:24:41;;;;;;;1999.90;999.90;;;;;;;;;;4975813;28;20218;-68
2022/10/21 07:27:26;;;;;;;1999.90;999.90;;;;;;;;;;4976012;28;20714;-66
2022/10/21 07:30:12;;;;;;;1999.90;999.90;;;;;;;;;;4975219;28;20586;-65
2022/10/21 07:32:57;;;;;;;1999.90;999.90;;;;;;;;;;4974021;28;20415;-69
2022/10/21 07:35:43;;;;;;;1999.90;999.90;;;;;;;;;;4989544;28;20453;-68
2022/10/21 07:38:28;;;;;;;1999.90;999.90;;;;;;;;;;4992932;28;20707;-68
2022/10/21 07:41:13;;;;;;;1999.90;999.90;;;;;;;;;;4989460;28;20817;-67
2022/10/21 07:43:59;;;;;;;1999.90;999.90;;;;;;;;;;4992380;28;20707;-68
2022/10/21 07:46:44;;;;;;;1999.90;999.90;;;;;;;;;;4977161;28;20321;-67
2022/10/21 07:49:29;;;;;;;1999.90;999.90;;;;;;;;;;4975312;28;20220;-67
2022/10/21 07:52:15;;;;;;;1999.90;999.90;;;;;;;;;;4989219;28;20202;-67
2022/10/21 07:55:01;;;;;;;1999.90;999.90;;;;;;;;;;4992688;28;20578;-68
2022/10/21 07:57:45;;;;;;;1999.90;999.90;;;;;;;;;;4987173;28;20226;-67
2022/10/21 08:00:30;;;;;;;1999.90;999.90;;;;;;;;;;4975705;28;20250;-68
2022/10/21 08:03:15;;;;;;;1999.90;999.90;;;;;;;;;;4982734;28;20213;-67
2022/10/21 08:06:00;;;;;;;1999.90;999.90;;;;;;;;;;4992094;28;20281;-68
2022/10/21 08:08:47;;;;;;;1999.90;999.90;;;;;;;;;;4993401;28;20305;-68
2022/10/21 08:11:33;;;;;;;1999.90;999.90;;;;;;;;;;4990752;28;20213;-68
2022/10/21 08:14:18;;;;;;;1999.90;999.90;;;;;;;;;;4990671;28;20211;-67
2022/10/21 08:17:03;;;;;;;1999.90;999.90;;;;;;;;;;4994689;28;20830;-68
2022/10/21 08:19:48;;;;;;;1999.90;999.90;;;;;;;;;;4991919;28;20428;-68
2022/10/21 08:22:33;;;;;;;1999.90;999.90;;;;;;;;;;4986337;28;20253;-69
2022/10/21 08:25:19;;;;;;;1999.90;999.90;;;;;;;;;;4993059;28;20209;-68
2022/10/21 08:28:05;;;;;;;1999.90;999.90;;;;;;;;;;4991487;28;20289;-67
2022/10/21 08:30:50;;;;;;;1999.90;999.90;;;;;;;;;;4992001;28;20211;-68
2022/10/21 08:33:36;;;;;;;1999.90;999.90;;;;;;;;;;4985716;28;20216;-67
2022/10/21 08:36:21;;;;;;;1999.90;999.90;;;;;;;;;;4985405;28;20218;-67
2022/10/21 08:39:06;;;;;;;1999.90;999.90;;;;;;;;;;4992493;28;20210;-68
2022/10/21 08:42:06;;;;;;;1999.90;999.90;;;;;;;;;;4999319;28;20426;-68
2022/10/21 08:44:55;;;;;;;1999.90;999.90;;;;;;;;;;4973285;28;20210;-67
2022/10/21 08:47:44;;;;;;;1999.90;999.90;;;;;;;;;;4988503;28;20325;-68
2022/10/21 08:50:32;;;;;;;1999.90;999.90;;;;;;;;;;4987382;28;20281;-69
2022/10/21 08:53:20;;;;;;;1999.90;999.90;;;;;;;;;;4993466;28;20339;-67
2022/10/21 08:56:06;;;;;;;1999.90;999.90;;;;;;;;;;4994242;28;20573;-68
2022/10/21 08:58:51;;;;;;;1999.90;999.90;;;;;;;;;;4977749;28;20274;-67
2022/10/21 09:01:39;;;;;;;1999.90;999.90;;;;;;;;;;4986225;28;20214;-68
2022/10/21 09:04:27;;;;;;;1999.90;999.90;;;;;;;;;;4985059;28;20294;-68
2022/10/21 09:07:18;;;;;;;1999.90;999.90;;;;;;;;;;4992677;28;20725;-68
2022/10/21 09:10:10;;;;;;;1999.90;999.90;;;;;;;;;;4996706;28;20715;-68
2022/10/21 09:12:58;;;;;;;1999.90;999.90;;;;;;;;;;4993366;28;20245;-69
2022/10/21 09:15:49;;;;;;;1999.90;999.90;;;;;;;;;;4985220;28;20208;-68
2022/10/21 09:18:39;;;;;;;1999.90;999.90;;;;;;;;;;4997452;28;20302;-67
2022/10/21 09:21:30;;;;;;;1999.90;999.90;;;;;;;;;;4998236;28;20214;-68
2022/10/21 09:24:18;;;;;;;1999.90;999.90;;;;;;;;;;4977698;28;20215;-67
2022/10/21 09:27:04;;;;;;;1999.90;999.90;;;;;;;;;;4994868;28;20239;-68
2022/10/21 09:29:50;;;;;;;1999.90;999.90;;;;;;;;;;4990507;28;20231;-68
2022/10/21 09:32:38;;;;;;;1999.90;999.90;;;;;;;;;;4981210;28;20630;-68
2022/10/21 09:35:27;;;;;;;1999.90;999.90;;;;;;;;;;4990065;28;20206;-68
2022/10/21 09:38:14;;;;;;;1999.90;999.90;;;;;;;;;;4993989;28;20237;-68
2022/10/21 09:41:02;;;;;;;1999.90;999.90;;;;;;;;;;4999295;28;20290;-67
2022/10/21 09:43:48;;;;;;;1999.90;999.90;;;;;;;;;;4977656;28;20208;-68
2022/10/21 09:46:33;;;;;;;1999.90;999.90;;;;;;;;;;4994658;28;20659;-67
2022/10/21 09:49:22;;;;;;;1999.90;999.90;;;;;;;;;;4993417;28;20239;-68
2022/10/21 09:52:09;;;;;;;1999.90;999.90;;;;;;;;;;4994143;28;20633;-68
2022/10/21 09:54:54;;;;;;;1999.90;999.90;;;;;;;;;;4997324;28;21014;-68
2022/10/21 09:57:44;;;;;;;1999.90;999.90;;;;;;;;;;4992596;28;20323;-68
2022/10/21 10:00:45;;;;;;;1999.90;999.90;;;;;;;;;;4986860;28;20264;-67
2022/10/21 10:03:31;;;;;;;1999.90;999.90;;;;;;;;;;4973288;28;20214;-68
2022/10/21 10:06:30;;;;;;;1999.90;999.90;;;;;;;;;;4997956;28;20219;-67
2022/10/21 10:09:24;;;;;;;1999.90;999.90;;;;;;;;;;4994917;28;20593;-72
2022/10/21 10:12:12;;;;;;;1999.90;999.90;;;;;;;;;;4991193;28;20227;-72
2022/10/21 10:15:10;;;;;;;1999.90;999.90;;;;;;;;;;4991820;28;20226;-71
2022/10/21 10:17:56;;;;;;;1999.90;999.90;;;;;;;;;;4991067;28;20227;-71
2022/10/21 10:20:41;;;;;;;1999.90;999.90;;;;;;;;;;4996697;28;20282;-72
2022/10/21 10:23:26;;;;;;;1999.90;999.90;;;;;;;;;;4985531;28;20214;-72
2022/10/21 10:26:17;;;;;;;1999.90;999.90;;;;;;;;;;4996798;28;20856;-71
2022/10/21 10:29:08;;;;;;;1999.90;999.90;;;;;;;;;;4983598;28;20239;-71
2022/10/21 10:31:56;;;;;;;1999.90;999.90;;;;;;;;;;4993967;28;20211;-73
2022/10/21 10:34:49;;;;;;;1999.90;999.90;;;;;;;;;;4990680;28;20207;-69
2022/10/21 10:37:36;;;;;;;1999.90;999.90;;;;;;;;;;4986342;28;20294;-72
2022/10/21 10:40:23;;;;;;;1999.90;999.90;;;;;;;;;;4991342;28;20573;-72
2022/10/21 10:43:13;;;;;;;1999.90;999.90;;;;;;;;;;4992099;28;20302;-72
2022/10/21 10:45:59;;;;;;;1999.90;999.90;;;;;;;;;;4985408;28;20456;-73
2022/10/21 10:48:46;;;;;;;1999.90;999.90;;;;;;;;;;4992281;28;20235;-71
2022/10/21 10:51:32;;;;;;;1999.90;999.90;;;;;;;;;;4989251;28;20208;-72
2022/10/21 10:54:18;;;;;;;1999.90;999.90;;;;;;;;;;4994098;28;20725;-73
2022/10/21 10:57:05;;;;;;;1999.90;999.90;;;;;;;;;;4991980;28;20302;-71
2022/10/21 10:59:54;;;;;;;1999.90;999.90;;;;;;;;;;4994347;28;20215;-72
2022/10/21 11:02:43;;;;;;;1999.90;999.90;;;;;;;;;;4986612;28;20230;-71
2022/10/21 11:05:32;;;;;;;1999.90;999.90;;;;;;;;;;4992616;28;20396;-71
2022/10/21 11:08:19;;;;;;;1999.90;999.90;;;;;;;;;;4993711;28;20230;-71
2022/10/21 11:11:06;;;;;;;1999.90;999.90;;;;;;;;;;5002341;28;20273;-72
2022/10/21 11:13:52;;;;;;;1999.90;999.90;;;;;;;;;;5002697;28;20230;-72
2022/10/21 11:16:46;;;;;;;1999.90;999.90;;;;;;;;;;4993308;28;20684;-70
2022/10/21 11:19:35;;;;;;;1999.90;999.90;;;;;;;;;;4998892;28;20255;-71
2022/10/21 11:22:25;;;;;;;1999.90;999.90;;;;;;;;;;4977188;28;20216;-72
2022/10/21 11:25:18;;;;;;;1999.90;999.90;;;;;;;;;;4997226;28;20714;-73
2022/10/21 11:28:09;;;;;;;1999.90;999.90;;;;;;;;;;4991714;28;20223;-73
2022/10/21 11:30:59;;;;;;;1999.90;999.90;;;;;;;;;;4986358;28;20248;-72
2022/10/21 11:33:49;;;;;;;1999.90;999.90;;;;;;;;;;4986692;28;20219;-71
2022/10/21 11:36:37;;;;;;;1999.90;999.90;;;;;;;;;;4988968;28;20210;-70
2022/10/21 11:39:28;;;;;;;1999.90;999.90;;;;;;;;;;4996009;28;20718;-70
2022/10/21 11:42:17;;;;;;;1999.90;999.90;;;;;;;;;;4998775;28;20215;-70
2022/10/21 11:45:07;;;;;;;1999.90;999.90;;;;;;;;;;4992151;28;20242;-71
2022/10/21 11:47:55;;;;;;;1999.90;999.90;;;;;;;;;;4990082;28;20305;-72
2022/10/21 11:50:44;;;;;;;1999.90;999.90;;;;;;;;;;4994658;28;20223;-71
2022/10/21 11:53:35;;;;;;;1999.90;999.90;;;;;;;;;;4990546;28;20623;-70
2022/10/21 11:56:24;;;;;;;1999.90;999.90;;;;;;;;;;4985896;28;20713;-72
2022/10/21 11:59:16;;;;;;;1999.90;999.90;;;;;;;;;;4997770;28;20570;-73
2022/10/21 12:02:08;;;;;;;1999.90;999.90;;;;;;;;;;4983768;28;20235;-72
2022/10/21 12:05:02;;;;;;;1999.90;999.90;;;;;;;;;;4992777;28;20294;-71
2022/10/21 12:08:04;;;;;;;1999.90;999.90;;;;;;;;;;4989620;28;20864;-72
2022/10/21 12:10:52;;;;;;;1999.90;999.90;;;;;;;;;;4992608;28;20729;-72
2022/10/21 12:13:40;;;;;;;1999.90;999.90;;;;;;;;;;4994605;28;20203;-72
2022/10/21 12:16:28;;;;;;;1999.90;999.90;;;;;;;;;;4994197;28;20264;-73
2022/10/21 12:19:13;;;;;;;1999.90;999.90;;;;;;;;;;4992987;28;20398;-72
2022/10/21 12:21:58;;;;;;;1999.90;999.90;;;;;;;;;;4994468;28;20196;-73
2022/10/21 12:24:48;;;;;;;1999.90;999.90;;;;;;;;;;4993725;28;20212;-72
2022/10/21 12:27:38;;;;;;;1999.90;999.90;;;;;;;;;;4994295;28;20259;-72
2022/10/21 12:30:25;;;;;;;1999.90;999.90;;;;;;;;;;4994052;28;20219;-73
2022/10/21 12:33:16;;;;;;;1999.90;999.90;;;;;;;;;;4993887;28;20219;-72
2022/10/21 12:36:18;;;;;;;1999.90;999.90;;;;;;;;;;4993943;28;20224;-72
2022/10/21 12:39:04;;;;;;;1999.90;999.90;;;;;;;;;;4994050;28;20507;-71
2022/10/21 12:42:03;;;;;;;1999.90;999.90;;;;;;;;;;4994112;28;20562;-72
2022/10/21 12:44:49;;;;;;;1999.90;999.90;;;;;;;;;;5003730;28;20328;-72
2022/10/21 12:47:35;;;;;;;1999.90;999.90;;;;;;;;;;4995216;28;20242;-73
2022/10/21 12:50:24;;;;;;;1999.90;999.90;;;;;;;;;;4984513;28;20263;-73
2022/10/21 12:53:21;;;;;;;1999.90;999.90;;;;;;;;;;4989551;28;20331;-72
2022/10/21 12:56:07;;;;;;;1999.90;999.90;;;;;;;;;;4989077;28;20215;-70
2022/10/21 12:58:57;;;;;;;1999.90;999.90;;;;;;;;;;4998160;28;20234;-70
2022/10/21 13:01:43;;;;;;;1999.90;999.90;;;;;;;;;;4987665;28;20204;-72
2022/10/21 13:04:44;;;;;;;1999.90;999.90;;;;;;;;;;4992945;28;20207;-71
2022/10/21 13:07:37;;;;;;;1999.90;999.90;;;;;;;;;;4984046;28;20230;-71
2022/10/21 13:10:25;;;;;;;1999.90;999.90;;;;;;;;;;4988932;28;20445;-69
2022/10/21 13:13:27;;;;;;;1999.90;999.90;;;;;;;;;;4984316;28;20208;-71
2022/10/21 13:16:34;;;;;;;1999.90;999.90;;;;;;;;;;4992420;28;20207;-71
2022/10/21 13:19:33;;;;;;;1999.90;999.90;;;;;;;;;;4985264;28;20214;-71
2022/10/21 13:22:21;;;;;;;1999.90;999.90;;;;;;;;;;5000579;28;20219;-71
2022/10/21 13:25:10;;;;;;;1999.90;999.90;;;;;;;;;;4992065;28;20214;-71
2022/10/21 13:28:02;;;;;;;1999.90;999.90;;;;;;;;;;4983625;28;20606;-71
2022/10/21 13:30:57;;;;;;;1999.90;999.90;;;;;;;;;;4991549;28;20449;-70
2022/10/21 13:33:50;;;;;;;1999.90;999.90;;;;;;;;;;4988066;28;20570;-70
2022/10/21 13:36:38;;;;;;;1999.90;999.90;;;;;;;;;;4994594;28;20219;-71
2022/10/21 13:39:26;;;;;;;1999.90;999.90;;;;;;;;;;4983083;28;20211;-72
2022/10/21 13:42:14;;;;;;;1999.90;999.90;;;;;;;;;;4984187;28;20394;-71
2022/10/21 13:45:01;;;;;;;1999.90;999.90;;;;;;;;;;4992239;28;20298;-72
2022/10/21 13:47:58;;;;;;;1999.90;999.90;;;;;;;;;;4992651;28;20329;-71
2022/10/21 13:50:45;;;;;;;1999.90;999.90;;;;;;;;;;4983865;28;20248;-72
2022/10/21 13:53:35;;;;;;;1999.90;999.90;;;;;;;;;;4986376;28;20215;-71
2022/10/21 13:56:21;;;;;;;1999.90;999.90;;;;;;;;;;4988808;28;20208;-71
2022/10/21 13:59:07;;;;;;;1999.90;999.90;;;;;;;;;;4990882;28;20851;-71
2022/10/21 14:01:53;;;;;;;1999.90;999.90;;;;;;;;;;4990463;28;20227;-73
2022/10/21 14:04:41;;;;;;;1999.90;999.90;;;;;;;;;;4986575;28;20211;-72
2022/10/21 14:07:28;;;;;;;1999.90;999.90;;;;;;;;;;4984950;28;20421;-71
2022/10/21 14:10:15;;;;;;;1999.90;999.90;;;;;;;;;;4992764;28;20222;-72
2022/10/21 14:13:00;;;;;;;1999.90;999.90;;;;;;;;;;4992619;28;20285;-69
2022/10/21 14:15:45;;;;;;;1999.90;999.90;;;;;;;;;;4993873;28;20588;-69
2022/10/21 14:18:31;;;;;;;1999.90;999.90;;;;;;;;;;4973142;28;20232;-72
2022/10/21 14:21:19;;;;;;;1999.90;999.90;;;;;;;;;;4995845;28;20206;-71
2022/10/21 14:24:05;;;;;;;1999.90;999.90;;;;;;;;;;4991108;28;20211;-72
2022/10/21 14:26:51;;;;;;;1999.90;999.90;;;;;;;;;;4988642;28;20210;-72
2022/10/21 14:29:36;;;;;;;1999.90;999.90;;;;;;;;;;4991883;28;20210;-72
2022/10/21 14:32:23;;;;;;;1999.90;999.90;;;;;;;;;;4984492;28;20339;-71
2022/10/21 14:35:22;;;;;;;1999.90;999.90;;;;;;;;;;4995585;28;20430;-71
2022/10/21 14:38:24;;;;;;;1999.90;999.90;;;;;;;;;;4991392;28;20786;-72
2022/10/21 14:41:14;;;;;;;1999.90;999.90;;;;;;;;;;4988918;28;20704;-71
2022/10/21 14:44:05;;;;;;;1999.90;999.90;;;;;;;;;;4993253;28;20279;-71
2022/10/21 14:46:52;;;;;;;1999.90;999.90;;;;;;;;;;4996063;28;20262;-70
2022/10/21 14:49:41;;;;;;;1999.90;999.90;;;;;;;;;;4996799;28;20215;-72
2022/10/21 14:52:29;;;;;;;1999.90;999.90;;;;;;;;;;4988816;28;20277;-72
2022/10/21 14:55:15;;;;;;;1999.90;999.90;;;;;;;;;;4995094;28;20206;-72
2022/10/21 14:58:04;;;;;;;1999.90;999.90;;;;;;;;;;4993223;28;20769;-70
2022/10/21 15:00:54;;;;;;;1999.90;999.90;;;;;;;;;;4990401;28;20685;-72
2022/10/21 15:03:40;;;;;;;1999.90;999.90;;;;;;;;;;4991683;28;20797;-70
2022/10/21 15:06:26;;;;;;;1999.90;999.90;;;;;;;;;;4990814;28;20637;-70
2022/10/21 15:09:17;;;;;;;1999.90;999.90;;;;;;;;;;4995134;28;20211;-71
2022/10/21 15:12:17;;;;;;;1999.90;999.90;;;;;;;;;;4978661;28;20228;-74
2022/10/21 15:15:04;;;;;;;1999.90;999.90;;;;;;;;;;4983946;28;20264;-72
2022/10/21 15:17:49;;;;;;;1999.90;999.90;;;;;;;;;;4987945;28;20591;-72
2022/10/21 15:20:34;;;;;;;1999.90;999.90;;;;;;;;;;4979536;28;21045;-71
2022/10/21 15:23:20;;;;;;;1999.90;999.90;;;;;;;;;;4984798;28;20215;-72
2022/10/21 15:26:09;;;;;;;1999.90;999.90;;;;;;;;;;4993317;28;20435;-72
2022/10/21 15:28:54;;;;;;;1999.90;999.90;;;;;;;;;;4997834;28;20618;-71
2022/10/21 15:31:41;;;;;;;1999.90;999.90;;;;;;;;;;4989862;28;20216;-71
2022/10/21 15:34:26;;;;;;;1999.90;999.90;;;;;;;;;;4988315;28;20215;-71
2022/10/21 15:37:11;;;;;;;1999.90;999.90;;;;;;;;;;4994948;28;20238;-71
2022/10/21 15:39:56;;;;;;;1999.90;999.90;;;;;;;;;;4995289;28;20290;-71
2022/10/21 15:42:42;;;;;;;1999.90;999.90;;;;;;;;;;4995634;28;20298;-72
2022/10/21 15:45:27;;;;;;;1999.90;999.90;;;;;;;;;;4990537;28;20429;-72
2022/10/21 15:48:13;;;;;;;1999.90;999.90;;;;;;;;;;4991846;28;20355;-71
2022/10/21 15:50:58;;;;;;;1999.90;999.90;;;;;;;;;;4992305;28;20699;-70
2022/10/21 15:53:43;;;;;;;1999.90;999.90;;;;;;;;;;4995234;28;20226;-71
2022/10/21 15:56:28;;;;;;;1999.90;999.90;;;;;;;;;;4987881;28;20215;-72
2022/10/21 15:59:16;;;;;;;1999.90;999.90;;;;;;;;;;4994927;28;20207;-71
2022/10/21 16:02:01;;;;;;;1999.90;999.90;;;;;;;;;;4989756;28;20216;-72
2022/10/21 16:04:51;;;;;;;1999.90;999.90;;;;;;;;;;4987324;28;20267;-71
2022/10/21 16:07:36;;;;;;;1999.90;999.90;;;;;;;;;;4989173;28;20604;-71
2022/10/21 16:10:22;;;;;;;1999.90;999.90;;;;;;;;;;4994591;28;20291;-71
2022/10/21 16:13:07;;;;;;;1999.90;999.90;;;;;;;;;;4994641;28;20219;-71
2022/10/21 16:15:53;;;;;;;1999.90;999.90;;;;;;;;;;4994466;28;20213;-71
2022/10/21 16:18:38;;;;;;;1999.90;999.90;;;;;;;;;;4992988;28;20338;-71
2022/10/21 16:21:24;;;;;;;1999.90;999.90;;;;;;;;;;4986827;28;20203;-73